Iris Halo — 3ECA8 — position and weather

sailwx.info

Track history (hours):
 
Tides and Currents Weather Stations Pressure Air Temp Water Temp Dewpoint Dewpoint Depression Visibility Wind Speed Wind Dir Waves Ship Positions

Iris Halo

Last reported at 2017-Oct-26 00:28 UTC. Time now 2017-Nov-24 07:34 UTC.
Position N 34°51' E 140°08'.
Warning: this ship's position is 29 days out of date.

Length 190 m; draft 5.3 m.

Type: Cargo ship. MMSI: 371281000.

Date/timePositionNaut miles runAvg speedWind from/ knotsBaromVisibWave heightAir tempDewpointWater temp
2017-Oct-26 00:28N 34°51' E 140°08'510.8
2017-Oct-26 00:00N 34°48' E 140°02'1010.1
2017-Oct-25 23:04N 34°44' E 139°52'610.2
2017-Oct-25 22:28N 34°40' E 139°46'  
2017-Oct-21 14:39N 30°56' E 122°45'5 8.2
2017-Oct-21 13:59N 30°56' E 122°39'6 8.5
2017-Oct-21 13:17N 30°56' E 122°32'311.8
2017-Oct-21 13:00N 30°59' E 122°31'5 9.1
2017-Oct-21 12:30N 31°00' E 122°26'4 7.5
2017-Oct-21 12:00N 31°01' E 122°21'4 8.0
2017-Oct-21 11:30N 31°02' E 122°17'4 9.0
2017-Oct-21 11:00N 31°02' E 122°12'612.0
2017-Oct-21 10:30N 31°04' E 122°05'510.7
2017-Oct-21 10:00N 31°06' E 121°59'714.5
2017-Oct-21 09:30N 31°10' E 121°52'815.2
2017-Oct-21 09:00N 31°15' E 121°46'713.5
2017-Oct-21 08:30N 31°20' E 121°41'611.8
2017-Oct-21 08:00N 31°23' E 121°35'510.3
2017-Oct-21 07:30N 31°26' E 121°30'611.2
2017-Oct-21 07:00N 31°30' E 121°25'3 6.9
2017-Oct-21 06:30N 31°30' E 121°29'611.2
2017-Oct-21 06:00N 31°30' E 121°36'2 3.4
2017-Oct-21 05:30N 31°31' E 121°35'5 9.4
2017-Oct-21 05:00N 31°34' E 121°30'2 3.6
2017-Oct-21 04:30N 31°34' E 121°28'0 0.1
2017-Oct-21 04:00N 31°34' E 121°28'0 0.1
2017-Oct-21 03:30N 31°34' E 121°28'0 0.0
2017-Oct-21 03:00N 31°34' E 121°28'0 0.1
2017-Oct-21 02:30N 31°34' E 121°28'0 0.1
2017-Oct-21 02:00N 31°34' E 121°28'0 0.2
2017-Oct-21 01:30N 31°34' E 121°28'2 4.0
2017-Oct-21 01:01N 31°33' E 121°30'2 4.5
2017-Oct-21 00:31N 31°35' E 121°28'2 3.2
2017-Oct-20 23:58N 31°36' E 121°27'0 0.0
2017-Oct-20 23:28N 31°36' E 121°27'0 0.0
2017-Oct-20 22:58N 31°36' E 121°27'0 0.0
2017-Oct-20 22:28N 31°36' E 121°27'0 0.0
2017-Oct-20 21:58N 31°36' E 121°27'0 0.0
2017-Oct-20 21:28N 31°36' E 121°27'0 0.0
2017-Oct-20 20:58N 31°36' E 121°27'0 0.0
2017-Oct-20 20:28N 31°36' E 121°27'0 0.0
2017-Oct-20 19:58N 31°36' E 121°27'0 0.0
2017-Oct-20 19:28N 31°36' E 121°27'0 0.0
2017-Oct-20 18:58N 31°36' E 121°27'0 0.0
2017-Oct-20 18:28N 31°36' E 121°27'0 0.0
2017-Oct-20 17:58N 31°36' E 121°27'0 0.0
2017-Oct-20 17:28N 31°36' E 121°27'0 0.0
2017-Oct-20 17:00N 31°36' E 121°27'0 0.0
2017-Oct-20 16:28N 31°36' E 121°27'0 0.0
2017-Oct-20 15:58N 31°36' E 121°27'0 0.0
2017-Oct-20 15:28N 31°36' E 121°27'0 0.0
2017-Oct-20 14:58N 31°36' E 121°27'0 0.0
2017-Oct-20 13:58N 31°36' E 121°27'0 0.0
2017-Oct-20 13:28N 31°36' E 121°27'0 0.0
2017-Oct-20 12:58N 31°36' E 121°27'0 0.0
2017-Oct-20 12:28N 31°36' E 121°27'0 0.0
2017-Oct-20 11:58N 31°36' E 121°27'0 0.0
2017-Oct-20 11:28N 31°36' E 121°27'0 0.0
2017-Oct-20 10:55N 31°36' E 121°27'0 0.0
2017-Oct-20 10:28N 31°36' E 121°27'0 0.0
2017-Oct-20 09:55N 31°36' E 121°27'0 0.0
2017-Oct-20 09:28N 31°36' E 121°27'0 0.0
2017-Oct-20 08:58N 31°36' E 121°27'0 0.0
2017-Oct-20 08:28N 31°36' E 121°27'0 0.0
2017-Oct-20 07:58N 31°36' E 121°27'0 0.0
2017-Oct-20 07:28N 31°36' E 121°27'0 0.0
2017-Oct-20 06:58N 31°36' E 121°27'0 0.0
2017-Oct-20 06:28N 31°36' E 121°27'0 0.0
2017-Oct-20 05:55N 31°36' E 121°27'0 0.0
2017-Oct-20 05:28N 31°36' E 121°27'0 0.0
2017-Oct-20 04:58N 31°36' E 121°27'0 0.0
2017-Oct-20 04:28N 31°36' E 121°27'0 0.0
2017-Oct-20 03:58N 31°36' E 121°27'0 0.0
2017-Oct-20 03:28N 31°36' E 121°27'0 0.0
2017-Oct-20 02:58N 31°36' E 121°27'0 0.0
2017-Oct-20 02:28N 31°36' E 121°27'0 0.0
2017-Oct-20 01:58N 31°36' E 121°27'0 0.0
2017-Oct-20 01:28N 31°36' E 121°27'0 0.0
2017-Oct-20 00:58N 31°36' E 121°27'0 0.0
2017-Oct-20 00:28N 31°36' E 121°27'0 0.0
2017-Oct-19 23:58N 31°36' E 121°27'0 0.0
2017-Oct-19 23:28N 31°36' E 121°27'0 0.0
2017-Oct-19 22:58N 31°36' E 121°27'0 0.0
2017-Oct-19 22:28N 31°36' E 121°27'0 0.0
2017-Oct-19 21:58N 31°36' E 121°27'0 0.0
2017-Oct-19 21:28N 31°36' E 121°27'0 0.0
2017-Oct-19 20:58N 31°36' E 121°27'0 0.0
2017-Oct-19 20:28N 31°36' E 121°27'0 0.0
2017-Oct-19 19:58N 31°36' E 121°27'0 0.0
2017-Oct-19 19:28N 31°36' E 121°27'0 0.0
2017-Oct-19 18:58N 31°36' E 121°27'0 0.0
2017-Oct-19 18:28N 31°36' E 121°27'0 0.0
2017-Oct-19 17:58N 31°36' E 121°27'0 0.0
2017-Oct-19 17:28N 31°36' E 121°27'0 0.0
2017-Oct-19 16:58N 31°36' E 121°27'0 0.0
2017-Oct-19 16:28N 31°36' E 121°27'0 0.0
2017-Oct-19 15:58N 31°36' E 121°27'0 0.0
2017-Oct-19 15:28N 31°36' E 121°27'0 0.0
2017-Oct-19 14:58N 31°36' E 121°27'0 0.0
2017-Oct-19 14:28N 31°36' E 121°27'0 0.0
2017-Oct-19 13:58N 31°36' E 121°27'0 0.0
2017-Oct-19 13:28N 31°36' E 121°27'0 0.0
2017-Oct-19 12:58N 31°36' E 121°27'0 0.0
2017-Oct-19 12:28N 31°36' E 121°27'0 0.0
2017-Oct-19 11:58N 31°36' E 121°27'0 0.0
2017-Oct-19 11:28N 31°36' E 121°27'0 0.0
2017-Oct-19 10:58N 31°36' E 121°27'0 0.0
2017-Oct-19 10:28N 31°36' E 121°27'0 0.0
2017-Oct-19 09:58N 31°36' E 121°27'0 0.0
2017-Oct-19 09:28N 31°36' E 121°27'0 0.0
2017-Oct-19 08:58N 31°36' E 121°27'0 0.0
2017-Oct-19 08:28N 31°36' E 121°27'0 0.0
2017-Oct-19 07:58N 31°36' E 121°27'0 0.0
2017-Oct-19 07:28N 31°36' E 121°27'0 0.0
2017-Oct-19 06:58N 31°36' E 121°27'0 0.0
2017-Oct-19 06:28N 31°36' E 121°27'0 0.0
2017-Oct-19 06:00N 31°36' E 121°27'0 0.0
2017-Oct-19 05:30N 31°36' E 121°27'0 0.0
2017-Oct-19 05:00N 31°36' E 121°27'0 0.0
2017-Oct-19 04:30N 31°36' E 121°27'0 0.0
2017-Oct-19 04:00N 31°36' E 121°27'0 0.0
2017-Oct-19 03:30N 31°36' E 121°27'0 0.0
2017-Oct-19 00:38N 31°36' E 121°27'0 0.0
2017-Oct-19 00:31N 31°36' E 121°27'0 0.0
2017-Oct-19 00:00N 31°36' E 121°27'0 0.0
2017-Oct-18 23:31N 31°36' E 121°27'0 0.0
2017-Oct-18 23:00N 31°36' E 121°27'0 0.0
2017-Oct-18 22:30N 31°36' E 121°27'0 0.0
2017-Oct-18 22:01N 31°36' E 121°27'0 0.0
2017-Oct-18 21:30N 31°36' E 121°27'0 0.0
2017-Oct-18 21:00N 31°36' E 121°27'0 0.0
2017-Oct-18 20:30N 31°36' E 121°27'0 0.0
2017-Oct-18 20:01N 31°36' E 121°27'0 0.0
2017-Oct-18 19:30N 31°36' E 121°27'0 0.0
2017-Oct-18 19:00N 31°36' E 121°27'0 0.0
2017-Oct-18 18:31N 31°36' E 121°27'0 0.0
2017-Oct-18 18:00N 31°36' E 121°27'0 0.0
2017-Oct-18 17:30N 31°36' E 121°27'0 0.0
2017-Oct-18 17:01N 31°36' E 121°27'0 0.0
2017-Oct-18 16:30N 31°36' E 121°27'0 0.0
2017-Oct-18 16:00N 31°36' E 121°27'0 0.0
2017-Oct-18 15:31N 31°36' E 121°27'0 0.0
2017-Oct-18 15:00N 31°36' E 121°27'0 0.0
2017-Oct-18 14:00N 31°36' E 121°27'0 0.0
2017-Oct-18 13:31N 31°36' E 121°27'0 0.0
2017-Oct-18 13:01N 31°36' E 121°27'0 0.0
2017-Oct-18 12:31N 31°36' E 121°27'0 0.0
2017-Oct-18 12:00N 31°36' E 121°27'0 0.0
2017-Oct-18 11:31N 31°36' E 121°27'0 0.0
2017-Oct-18 11:01N 31°36' E 121°27'0 0.0
2017-Oct-18 10:30N 31°36' E 121°27'0 0.0
2017-Oct-18 10:00N 31°36' E 121°27'  
Track history (hours):
 
Tides and Currents Weather Stations Pressure Air Temp Water Temp Dewpoint Dewpoint Depression Visibility Wind Speed Wind Dir Waves Ship Positions

Iris Halo

Last reported at 2017-Oct-26 00:28 UTC. Time now 2017-Nov-24 07:34 UTC.
Position N 34°51' E 140°08'.
Warning: this ship's position is 29 days out of date.

Length 190 m; draft 5.3 m.

Type: Cargo ship. MMSI: 371281000.

Date/timePositionNaut miles runAvg speedWind from/ knotsBaromVisibWave heightAir tempDewpointWater temp
2017-Oct-26 00:28N 34°51' E 140°08'510.8
2017-Oct-26 00:00N 34°48' E 140°02'1010.1
2017-Oct-25 23:04N 34°44' E 139°52'610.2
2017-Oct-25 22:28N 34°40' E 139°46'  
2017-Oct-21 14:39N 30°56' E 122°45'5 8.2
2017-Oct-21 13:59N 30°56' E 122°39'6 8.5
2017-Oct-21 13:17N 30°56' E 122°32'311.8
2017-Oct-21 13:00N 30°59' E 122°31'5 9.1
2017-Oct-21 12:30N 31°00' E 122°26'4 7.5
2017-Oct-21 12:00N 31°01' E 122°21'4 8.0
2017-Oct-21 11:30N 31°02' E 122°17'4 9.0
2017-Oct-21 11:00N 31°02' E 122°12'612.0
2017-Oct-21 10:30N 31°04' E 122°05'510.7
2017-Oct-21 10:00N 31°06' E 121°59'714.5
2017-Oct-21 09:30N 31°10' E 121°52'815.2
2017-Oct-21 09:00N 31°15' E 121°46'713.5
2017-Oct-21 08:30N 31°20' E 121°41'611.8
2017-Oct-21 08:00N 31°23' E 121°35'510.3
2017-Oct-21 07:30N 31°26' E 121°30'611.2
2017-Oct-21 07:00N 31°30' E 121°25'3 6.9
2017-Oct-21 06:30N 31°30' E 121°29'611.2
2017-Oct-21 06:00N 31°30' E 121°36'2 3.4
2017-Oct-21 05:30N 31°31' E 121°35'5 9.4
2017-Oct-21 05:00N 31°34' E 121°30'2 3.6
2017-Oct-21 04:30N 31°34' E 121°28'0 0.1
2017-Oct-21 04:00N 31°34' E 121°28'0 0.1
2017-Oct-21 03:30N 31°34' E 121°28'0 0.0
2017-Oct-21 03:00N 31°34' E 121°28'0 0.1
2017-Oct-21 02:30N 31°34' E 121°28'0 0.1
2017-Oct-21 02:00N 31°34' E 121°28'0 0.2
2017-Oct-21 01:30N 31°34' E 121°28'2 4.0
2017-Oct-21 01:01N 31°33' E 121°30'2 4.5
2017-Oct-21 00:31N 31°35' E 121°28'2 3.2
2017-Oct-20 23:58N 31°36' E 121°27'0 0.0
2017-Oct-20 23:28N 31°36' E 121°27'0 0.0
2017-Oct-20 22:58N 31°36' E 121°27'0 0.0
2017-Oct-20 22:28N 31°36' E 121°27'0 0.0
2017-Oct-20 21:58N 31°36' E 121°27'0 0.0
2017-Oct-20 21:28N 31°36' E 121°27'0 0.0
2017-Oct-20 20:58N 31°36' E 121°27'0 0.0
2017-Oct-20 20:28N 31°36' E 121°27'0 0.0
2017-Oct-20 19:58N 31°36' E 121°27'0 0.0
2017-Oct-20 19:28N 31°36' E 121°27'0 0.0
2017-Oct-20 18:58N 31°36' E 121°27'0 0.0
2017-Oct-20 18:28N 31°36' E 121°27'0 0.0
2017-Oct-20 17:58N 31°36' E 121°27'0 0.0
2017-Oct-20 17:28N 31°36' E 121°27'0 0.0
2017-Oct-20 17:00N 31°36' E 121°27'0 0.0
2017-Oct-20 16:28N 31°36' E 121°27'0 0.0
2017-Oct-20 15:58N 31°36' E 121°27'0 0.0
2017-Oct-20 15:28N 31°36' E 121°27'0 0.0
2017-Oct-20 14:58N 31°36' E 121°27'0 0.0
2017-Oct-20 13:58N 31°36' E 121°27'0 0.0
2017-Oct-20 13:28N 31°36' E 121°27'0 0.0
2017-Oct-20 12:58N 31°36' E 121°27'0 0.0
2017-Oct-20 12:28N 31°36' E 121°27'0 0.0
2017-Oct-20 11:58N 31°36' E 121°27'0 0.0
2017-Oct-20 11:28N 31°36' E 121°27'0 0.0
2017-Oct-20 10:55N 31°36' E 121°27'0 0.0
2017-Oct-20 10:28N 31°36' E 121°27'0 0.0
2017-Oct-20 09:55N 31°36' E 121°27'0 0.0
2017-Oct-20 09:28N 31°36' E 121°27'0 0.0
2017-Oct-20 08:58N 31°36' E 121°27'0 0.0
2017-Oct-20 08:28N 31°36' E 121°27'0 0.0
2017-Oct-20 07:58N 31°36' E 121°27'0 0.0
2017-Oct-20 07:28N 31°36' E 121°27'0 0.0
2017-Oct-20 06:58N 31°36' E 121°27'0 0.0
2017-Oct-20 06:28N 31°36' E 121°27'0 0.0
2017-Oct-20 05:55N 31°36' E 121°27'0 0.0
2017-Oct-20 05:28N 31°36' E 121°27'0 0.0
2017-Oct-20 04:58N 31°36' E 121°27'0 0.0
2017-Oct-20 04:28N 31°36' E 121°27'0 0.0
2017-Oct-20 03:58N 31°36' E 121°27'0 0.0
2017-Oct-20 03:28N 31°36' E 121°27'0 0.0
2017-Oct-20 02:58N 31°36' E 121°27'0 0.0
2017-Oct-20 02:28N 31°36' E 121°27'0 0.0
2017-Oct-20 01:58N 31°36' E 121°27'0 0.0
2017-Oct-20 01:28N 31°36' E 121°27'0 0.0
2017-Oct-20 00:58N 31°36' E 121°27'0 0.0
2017-Oct-20 00:28N 31°36' E 121°27'0 0.0
2017-Oct-19 23:58N 31°36' E 121°27'0 0.0
2017-Oct-19 23:28N 31°36' E 121°27'0 0.0
2017-Oct-19 22:58N 31°36' E 121°27'0 0.0
2017-Oct-19 22:28N 31°36' E 121°27'0 0.0
2017-Oct-19 21:58N 31°36' E 121°27'0 0.0
2017-Oct-19 21:28N 31°36' E 121°27'0 0.0
2017-Oct-19 20:58N 31°36' E 121°27'0 0.0
2017-Oct-19 20:28N 31°36' E 121°27'0 0.0
2017-Oct-19 19:58N 31°36' E 121°27'0 0.0
2017-Oct-19 19:28N 31°36' E 121°27'0 0.0
2017-Oct-19 18:58N 31°36' E 121°27'0 0.0
2017-Oct-19 18:28N 31°36' E 121°27'0 0.0
2017-Oct-19 17:58N 31°36' E 121°27'0 0.0
2017-Oct-19 17:28N 31°36' E 121°27'0 0.0
2017-Oct-19 16:58N 31°36' E 121°27'0 0.0
2017-Oct-19 16:28N 31°36' E 121°27'0 0.0
2017-Oct-19 15:58N 31°36' E 121°27'0 0.0
2017-Oct-19 15:28N 31°36' E 121°27'0 0.0
2017-Oct-19 14:58N 31°36' E 121°27'0 0.0
2017-Oct-19 14:28N 31°36' E 121°27'0 0.0
2017-Oct-19 13:58N 31°36' E 121°27'0 0.0
2017-Oct-19 13:28N 31°36' E 121°27'0 0.0
2017-Oct-19 12:58N 31°36' E 121°27'0 0.0
2017-Oct-19 12:28N 31°36' E 121°27'0 0.0
2017-Oct-19 11:58N 31°36' E 121°27'0 0.0
2017-Oct-19 11:28N 31°36' E 121°27'0 0.0
2017-Oct-19 10:58N 31°36' E 121°27'0 0.0
2017-Oct-19 10:28N 31°36' E 121°27'0 0.0
2017-Oct-19 09:58N 31°36' E 121°27'0 0.0
2017-Oct-19 09:28N 31°36' E 121°27'0 0.0
2017-Oct-19 08:58N 31°36' E 121°27'0 0.0
2017-Oct-19 08:28N 31°36' E 121°27'0 0.0
2017-Oct-19 07:58N 31°36' E 121°27'0 0.0
2017-Oct-19 07:28N 31°36' E 121°27'0 0.0
2017-Oct-19 06:58N 31°36' E 121°27'0 0.0
2017-Oct-19 06:28N 31°36' E 121°27'0 0.0
2017-Oct-19 06:00N 31°36' E 121°27'0 0.0
2017-Oct-19 05:30N 31°36' E 121°27'0 0.0
2017-Oct-19 05:00N 31°36' E 121°27'0 0.0
2017-Oct-19 04:30N 31°36' E 121°27'0 0.0
2017-Oct-19 04:00N 31°36' E 121°27'0 0.0
2017-Oct-19 03:30N 31°36' E 121°27'0 0.0
2017-Oct-19 00:38N 31°36' E 121°27'0 0.0
2017-Oct-19 00:31N 31°36' E 121°27'0 0.0
2017-Oct-19 00:00N 31°36' E 121°27'0 0.0
2017-Oct-18 23:31N 31°36' E 121°27'0 0.0
2017-Oct-18 23:00N 31°36' E 121°27'0 0.0
2017-Oct-18 22:30N 31°36' E 121°27'0 0.0
2017-Oct-18 22:01N 31°36' E 121°27'0 0.0
2017-Oct-18 21:30N 31°36' E 121°27'0 0.0
2017-Oct-18 21:00N 31°36' E 121°27'0 0.0
2017-Oct-18 20:30N 31°36' E 121°27'0 0.0
2017-Oct-18 20:01N 31°36' E 121°27'0 0.0
2017-Oct-18 19:30N 31°36' E 121°27'0 0.0
2017-Oct-18 19:00N 31°36' E 121°27'0 0.0
2017-Oct-18 18:31N 31°36' E 121°27'0 0.0
2017-Oct-18 18:00N 31°36' E 121°27'0 0.0
2017-Oct-18 17:30N 31°36' E 121°27'0 0.0
2017-Oct-18 17:01N 31°36' E 121°27'0 0.0
2017-Oct-18 16:30N 31°36' E 121°27'0 0.0
2017-Oct-18 16:00N 31°36' E 121°27'0 0.0
2017-Oct-18 15:31N 31°36' E 121°27'0 0.0
2017-Oct-18 15:00N 31°36' E 121°27'0 0.0
2017-Oct-18 14:00N 31°36' E 121°27'0 0.0
2017-Oct-18 13:31N 31°36' E 121°27'0 0.0
2017-Oct-18 13:01N 31°36' E 121°27'0 0.0
2017-Oct-18 12:31N 31°36' E 121°27'0 0.0
2017-Oct-18 12:00N 31°36' E 121°27'0 0.0
2017-Oct-18 11:31N 31°36' E 121°27'0 0.0
2017-Oct-18 11:01N 31°36' E 121°27'0 0.0
2017-Oct-18 10:30N 31°36' E 121°27'0 0.0
2017-Oct-18 10:00N 31°36' E 121°27'  

Dump ship's entire track history